Time;durP1;ratioP1;P1;durP2;ratioP2;P2;SDS_P1;SDS_P2;PMS_P1;PMS_P2;Temp;Humidity;BMP_temperature;BMP_pressure;BME280_temperature;BME280_humidity;BME280_pressure;Samples;Min_cycle;Max_cycle;Signal;HPM_P1;HPM_P2
2023/05/22 00:00:06;;;;;;;5.10;3.50;;;;;;;13.79;66.92;101094.17;107319;1255;63496;-68
2023/05/22 00:02:57;;;;;;;6.30;3.40;;;;;;;13.79;66.22;101096.08;107312;1245;73696;-69
2023/05/22 00:05:26;;;;;;;11.40;3.50;;;;;;;13.78;65.66;101092.12;107287;1253;69972;-68
2023/05/22 00:07:56;;;;;;;5.40;3.30;;;;;;;13.77;64.69;101091.83;107396;1245;73459;-69
2023/05/22 00:10:25;;;;;;;8.00;3.50;;;;;;;13.68;64.76;101092.27;107196;1246;62200;-68
2023/05/22 00:12:54;;;;;;;8.30;3.70;;;;;;;13.54;64.89;101089.67;107379;1246;60006;-68
2023/05/22 00:15:23;;;;;;;10.60;3.40;;;;;;;13.46;65.75;101090.84;107408;1244;73499;-68
2023/05/22 00:17:53;;;;;;;5.60;3.30;;;;;;;13.42;65.38;101089.71;107352;1241;70991;-68
2023/05/22 00:20:22;;;;;;;5.60;3.00;;;;;;;13.34;67.00;101087.06;107400;1246;70230;-69
2023/05/22 00:22:52;;;;;;;4.60;2.80;;;;;;;13.15;67.92;101088.33;107323;1244;72361;-69
2023/05/22 00:25:21;;;;;;;10.40;3.50;;;;;;;12.97;68.71;101088.44;107320;1247;57510;-68
2023/05/22 00:27:50;;;;;;;11.60;3.00;;;;;;;12.85;68.96;101089.05;107336;1249;58420;-68
2023/05/22 00:30:20;;;;;;;5.60;3.40;;;;;;;12.78;69.23;101086.80;107416;1241;72800;-69
2023/05/22 00:32:49;;;;;;;7.70;3.10;;;;;;;12.73;69.19;101091.33;107344;1246;72132;-69
2023/05/22 00:35:18;;;;;;;6.50;3.40;;;;;;;12.67;69.05;101088.47;107383;1252;59195;-69
2023/05/22 00:37:47;;;;;;;9.30;3.90;;;;;;;12.63;69.69;101088.21;107309;1246;62726;-70
2023/05/22 00:40:16;;;;;;;5.10;3.30;;;;;;;12.63;72.34;101088.27;107318;1244;58980;-70
2023/05/22 00:42:45;;;;;;;7.60;3.20;;;;;;;12.61;72.26;101088.23;107360;1245;58954;-70
2023/05/22 00:45:15;;;;;;;6.60;3.10;;;;;;;12.58;71.69;101086.85;107355;1245;71743;-69
2023/05/22 00:47:44;;;;;;;7.20;3.40;;;;;;;12.54;70.23;101085.08;107301;1245;71951;-69
2023/05/22 00:50:13;;;;;;;7.90;3.30;;;;;;;12.50;73.27;101082.42;107426;1245;70939;-69
2023/05/22 00:52:45;;;;;;;6.60;3.40;;;;;;;12.46;73.76;101084.61;107278;1246;73618;-68
2023/05/22 00:55:15;;;;;;;10.10;3.70;;;;;;;12.38;72.77;101083.44;107358;1246;61931;-68
2023/05/22 00:57:44;;;;;;;7.10;3.30;;;;;;;12.29;73.38;101081.35;107535;1246;57851;-71
2023/05/22 01:00:15;;;;;;;5.10;3.50;;;;;;;12.17;74.23;101078.73;107144;1247;73044;-68
2023/05/22 01:02:45;;;;;;;8.00;4.00;;;;;;;12.06;74.46;101079.02;107246;1246;63264;-69
2023/05/22 01:05:16;;;;;;;10.00;3.50;;;;;;;11.97;73.84;101079.17;107245;1246;69045;-67
2023/05/22 01:07:46;;;;;;;8.50;3.40;;;;;;;11.95;74.46;101082.77;107281;1245;62867;-68
2023/05/22 01:10:15;;;;;;;5.40;3.50;;;;;;;11.94;74.95;101085.65;107259;1256;57554;-68
2023/05/22 01:13:23;;;;;;;6.90;3.60;;;;;;;11.90;74.76;101091.02;107290;1253;58965;-68
2023/05/22 01:16:31;;;;;;;9.60;4.10;;;;;;;11.85;74.63;101094.44;107140;1255;62147;-69
2023/05/22 01:19:38;;;;;;;9.60;3.70;;;;;;;11.82;73.96;101095.02;107215;1253;71336;-69
2023/05/22 01:22:39;;;;;;;10.70;3.60;;;;;;;11.82;77.92;101093.44;107073;1246;70280;-69
2023/05/22 01:25:55;;;;;;;7.80;3.60;;;;;;;11.81;78.97;101091.29;107043;1255;63530;-67
2023/05/22 01:29:06;;;;;;;10.10;3.90;;;;;;;11.77;78.87;101087.52;107059;1246;59041;-68
2023/05/22 01:31:39;;;;;;;7.60;3.60;;;;;;;11.74;77.95;101087.77;107060;1245;60393;-68
2023/05/22 01:34:14;;;;;;;8.00;4.00;;;;;;;11.67;77.40;101085.79;107004;1248;63316;-73
2023/05/22 01:36:45;;;;;;;6.30;3.50;;;;;;;11.60;77.23;101087.52;107015;1245;72275;-71
2023/05/22 01:39:16;;;;;;;7.70;3.40;;;;;;;11.49;78.30;101092.48;107022;1252;61157;-73
2023/05/22 01:41:46;;;;;;;7.00;4.20;;;;;;;11.38;77.68;101091.52;106953;1245;73069;-72
2023/05/22 01:44:15;;;;;;;6.60;3.50;;;;;;;11.28;79.41;101094.27;107060;1245;60740;-70
2023/05/22 01:46:44;;;;;;;7.90;4.20;;;;;;;11.25;78.64;101093.95;107223;1245;58908;-69
2023/05/22 01:49:13;;;;;;;8.20;4.10;;;;;;;11.18;80.07;101094.46;107210;1244;63853;-70
2023/05/22 01:51:56;;;;;;;8.70;3.90;;;;;;;11.15;80.01;101091.02;107323;1255;61568;-71
2023/05/22 01:54:51;;;;;;;7.20;3.80;;;;;;;11.06;79.78;101088.80;107173;1245;59993;-71
2023/05/22 01:57:29;;;;;;;11.30;4.20;;;;;;;10.96;80.10;101093.88;107221;1244;63054;-71
2023/05/22 02:00:13;;;;;;;6.90;3.90;;;;;;;10.91;81.69;101095.61;106990;1242;57397;-69
2023/05/22 02:02:52;;;;;;;5.90;3.60;;;;;;;10.80;81.89;101096.86;107216;1246;60180;-70
2023/05/22 02:05:26;;;;;;;6.00;3.70;;;;;;;10.60;82.97;101094.21;107141;1245;62187;-70
2023/05/22 02:08:00;;;;;;;7.80;4.00;;;;;;;10.40;83.94;101091.15;107191;1246;61612;-69
2023/05/22 02:10:30;;;;;;;9.50;3.90;;;;;;;10.23;85.08;101090.66;107189;1251;70383;-70
2023/05/22 02:13:00;;;;;;;10.70;3.70;;;;;;;10.10;85.56;101096.36;107016;1256;63243;-69
2023/05/22 02:15:29;;;;;;;7.70;3.50;;;;;;;10.02;87.39;101096.06;106948;1248;62890;-70
2023/05/22 02:18:00;;;;;;;9.10;4.10;;;;;;;9.96;88.58;101101.30;107010;1246;59065;-70
2023/05/22 02:20:29;;;;;;;7.90;4.70;;;;;;;9.81;89.93;101103.60;106983;1245;72782;-69
2023/05/22 02:22:58;;;;;;;8.80;4.00;;;;;;;9.67;91.16;101099.80;107187;1244;71753;-67
2023/05/22 02:25:27;;;;;;;7.00;4.10;;;;;;;9.57;91.48;101100.76;107135;1244;70087;-67
2023/05/22 02:27:56;;;;;;;8.60;4.10;;;;;;;9.51;92.93;101096.77;107024;1253;73740;-67
2023/05/22 02:30:26;;;;;;;10.40;4.50;;;;;;;9.49;92.12;101095.53;107168;1245;61984;-69
2023/05/22 02:32:57;;;;;;;7.10;4.50;;;;;;;9.48;92.34;101097.34;107157;1252;58256;-68
2023/05/22 02:35:26;;;;;;;9.20;4.70;;;;;;;9.58;95.41;101093.94;107271;1245;72670;-70
2023/05/22 02:37:55;;;;;;;7.20;4.90;;;;;;;9.64;94.14;101094.58;107203;1246;61060;-69
2023/05/22 02:40:24;;;;;;;8.70;5.10;;;;;;;9.62;93.24;101097.67;107192;1245;59202;-72
2023/05/22 02:42:53;;;;;;;9.50;4.70;;;;;;;9.56;92.78;101099.77;107168;1246;62749;-73
2023/05/22 02:45:22;;;;;;;7.20;4.40;;;;;;;9.48;92.64;101105.48;107133;1248;59098;-71
2023/05/22 02:47:51;;;;;;;10.80;5.20;;;;;;;9.45;92.97;101109.12;107307;1246;60322;-71
2023/05/22 02:50:20;;;;;;;10.20;4.90;;;;;;;9.49;94.66;101109.80;107161;1255;74197;-70
2023/05/22 02:52:49;;;;;;;12.20;4.90;;;;;;;9.54;95.67;101107.94;107336;1246;63476;-70
2023/05/22 02:55:18;;;;;;;11.00;4.70;;;;;;;9.61;95.54;101104.34;107371;1244;60639;-68
2023/05/22 02:57:47;;;;;;;13.30;4.70;;;;;;;9.68;95.07;101101.31;107355;1241;73012;-68
2023/05/22 03:00:17;;;;;;;7.80;5.30;;;;;;;9.80;94.93;101104.89;107324;1255;63464;-67
2023/05/22 03:02:46;;;;;;;9.40;4.50;;;;;;;9.82;94.09;101109.26;107313;1255;59043;-69
2023/05/22 03:05:16;;;;;;;6.10;4.40;;;;;;;9.84;92.65;101108.33;107386;1245;71452;-69
2023/05/22 03:07:45;;;;;;;9.40;4.70;;;;;;;9.79;92.76;101108.98;107313;1244;62602;-67
2023/05/22 03:10:16;;;;;;;7.60;4.40;;;;;;;9.72;92.09;101110.06;107304;1256;59985;-70
2023/05/22 03:12:45;;;;;;;9.90;5.00;;;;;;;9.67;93.41;101108.14;107185;1245;62758;-68
2023/05/22 03:15:15;;;;;;;7.10;4.60;;;;;;;9.70;94.02;101103.27;107089;1253;62909;-69
2023/05/22 03:17:44;;;;;;;7.60;4.50;;;;;;;9.73;92.86;101103.21;107227;1246;59230;-70
2023/05/22 03:20:15;;;;;;;9.00;4.40;;;;;;;9.76;91.36;101101.16;107303;1244;72661;-70
2023/05/22 03:22:45;;;;;;;11.10;4.90;;;;;;;9.75;90.93;101101.39;107284;1246;71745;-69
2023/05/22 03:25:15;;;;;;;7.50;4.20;;;;;;;9.74;91.70;101102.14;107322;1255;70437;-69
2023/05/22 03:27:45;;;;;;;9.40;4.30;;;;;;;9.69;92.00;101100.02;106984;1252;74729;-68
2023/05/22 03:30:16;;;;;;;9.40;5.30;;;;;;;9.59;92.32;101101.85;107241;1246;59100;-68
2023/05/22 03:32:53;;;;;;;10.50;5.60;;;;;;;9.55;92.33;101104.88;107138;1248;59022;-70
2023/05/22 03:35:24;;;;;;;10.90;4.80;;;;;;;9.58;94.10;101108.34;107370;1245;73273;-70
2023/05/22 03:37:53;;;;;;;7.30;4.20;;;;;;;9.71;93.05;101106.15;107361;1250;71479;-69
2023/05/22 03:40:22;;;;;;;12.30;4.80;;;;;;;9.77;91.67;101108.75;107217;1246;69687;-69
2023/05/22 03:42:51;;;;;;;7.00;4.50;;;;;;;9.80;91.62;101109.56;107354;1253;73128;-70
2023/05/22 03:45:20;;;;;;;7.50;4.60;;;;;;;9.86;91.11;101111.46;107075;1252;62309;-70
2023/05/22 03:47:49;;;;;;;8.00;4.40;;;;;;;9.93;90.80;101109.32;106998;1248;61051;-71
2023/05/22 03:50:18;;;;;;;8.50;4.80;;;;;;;9.94;90.44;101106.30;107225;1244;73371;-69
2023/05/22 03:52:47;;;;;;;6.20;4.30;;;;;;;9.98;90.42;101102.85;107195;1244;61234;-69
2023/05/22 03:55:16;;;;;;;13.10;5.10;;;;;;;10.07;90.14;101099.88;107058;1256;60121;-69
2023/05/22 03:57:45;;;;;;;8.30;5.00;;;;;;;10.14;90.21;101096.62;107028;1256;63116;-69
2023/05/22 04:00:18;;;;;;;10.30;4.60;;;;;;;10.23;90.10;101095.23;107076;1249;58958;-69
2023/05/22 04:02:49;;;;;;;12.40;5.20;;;;;;;10.30;90.25;101094.79;107268;1245;60355;-69
2023/05/22 04:05:18;;;;;;;8.60;4.80;;;;;;;10.35;89.75;101096.02;107094;1253;62712;-70
2023/05/22 04:07:47;;;;;;;9.40;5.60;;;;;;;10.46;89.67;101097.36;107061;1246;61648;-70
2023/05/22 04:10:16;;;;;;;11.40;5.40;;;;;;;10.60;89.03;101095.05;107034;1255;60298;-70
2023/05/22 04:12:45;;;;;;;9.30;5.00;;;;;;;10.74;88.97;101090.27;106980;1248;62737;-70
2023/05/22 04:15:14;;;;;;;10.50;5.80;;;;;;;10.86;88.94;101092.94;107078;1244;59117;-68
2023/05/22 04:17:43;;;;;;;8.90;5.10;;;;;;;10.95;88.64;101091.69;107103;1256;58303;-71
2023/05/22 04:20:12;;;;;;;8.00;4.40;;;;;;;10.99;88.99;101092.82;107172;1245;72478;-70
2023/05/22 04:22:41;;;;;;;7.10;4.40;;;;;;;11.05;89.07;101093.77;107164;1242;72185;-69
2023/05/22 04:25:10;;;;;;;12.00;5.70;;;;;;;11.10;89.45;101094.98;107326;1245;70545;-70
2023/05/22 04:27:39;;;;;;;12.30;4.70;;;;;;;11.17;89.77;101096.79;107327;1254;74548;-71
2023/05/22 04:30:09;;;;;;;11.90;5.60;;;;;;;11.33;89.91;101103.20;107315;1255;63767;-69
2023/05/22 04:32:39;;;;;;;12.60;5.60;;;;;;;11.41;89.40;101104.52;107296;1244;57485;-69
2023/05/22 04:35:11;;;;;;;10.70;6.00;;;;;;;11.55;88.52;101106.90;107319;1244;72786;-70
2023/05/22 04:37:41;;;;;;;11.00;5.90;;;;;;;11.69;87.83;101108.16;107181;1247;72139;-71
2023/05/22 04:40:11;;;;;;;11.50;6.40;;;;;;;11.83;87.29;101108.93;107319;1245;68944;-71
2023/05/22 04:42:44;;;;;;;9.40;4.70;;;;;;;11.99;86.69;101110.44;107392;1246;62306;-70
2023/05/22 04:45:13;;;;;;;;;;;;;;;12.13;85.80;101113.24;107148;1249;59050;-72
2023/05/22 04:47:43;;;;;;;9.40;6.00;;;;;;;12.25;85.22;101114.27;107496;1245;59983;-71
2023/05/22 04:50:13;;;;;;;12.70;5.90;;;;;;;12.36;84.37;101115.55;107484;1245;62656;-72
2023/05/22 04:52:42;;;;;;;13.00;6.10;;;;;;;12.46;83.59;101115.69;107402;1246;69160;-71
2023/05/22 04:55:11;;;;;;;12.90;5.80;;;;;;;12.57;83.12;101116.66;107456;1255;59890;-69
2023/05/22 04:57:43;;;;;;;12.20;6.10;;;;;;;12.71;82.13;101118.20;107242;1244;62535;-63
2023/05/22 05:00:15;;;;;;;14.20;6.00;;;;;;;12.85;81.60;101121.52;107191;1245;59400;-65
2023/05/22 05:02:45;;;;;;;18.80;6.50;;;;;;;12.99;81.32;101126.08;107247;1245;58834;-63
2023/05/22 05:05:15;;;;;;;10.30;5.90;;;;;;;13.13;80.79;101121.55;107283;1241;72192;-62
2023/05/22 05:07:45;;;;;;;11.90;6.40;;;;;;;13.28;80.06;101120.19;107312;1245;61133;-64
2023/05/22 05:10:20;;;;;;;13.90;4.60;;;;;;;13.44;78.81;101119.83;107123;1249;70087;-62
2023/05/22 05:12:49;;;;;;;11.30;4.60;;;;;;;13.64;76.28;101124.23;107283;1246;72954;-62
2023/05/22 05:15:21;;;;;;;11.80;4.40;;;;;;;13.92;72.73;101123.25;107305;1245;59879;-63
2023/05/22 05:17:50;;;;;;;10.30;4.60;;;;;;;14.04;72.82;101126.09;107202;1245;60418;-62
2023/05/22 05:20:20;;;;;;;9.60;5.30;;;;;;;14.17;70.67;101125.61;107406;1248;72257;-63
2023/05/22 05:22:51;;;;;;;8.80;4.40;;;;;;;14.24;69.05;101122.36;107079;1254;62064;-65
2023/05/22 05:25:21;;;;;;;10.00;4.70;;;;;;;14.37;69.30;101125.23;107335;1246;68721;-62
2023/05/22 05:27:50;;;;;;;11.10;4.90;;;;;;;14.46;69.31;101121.81;107299;1248;63548;-63
2023/05/22 05:30:20;;;;;;;7.60;4.70;;;;;;;14.55;68.37;101121.44;107295;1245;58943;-66
2023/05/22 05:33:08;;;;;;;7.90;4.40;;;;;;;14.67;67.54;101118.04;107417;1245;60631;-69
2023/05/22 05:35:49;;;;;;;6.90;4.60;;;;;;;14.77;66.91;101120.69;107321;1245;62846;-64
2023/05/22 05:38:19;;;;;;;9.90;4.60;;;;;;;14.88;66.24;101119.20;107375;1253;63325;-66
2023/05/22 05:40:48;;;;;;;10.30;4.40;;;;;;;14.92;65.14;101118.16;107106;1249;59384;-63
2023/05/22 05:43:18;;;;;;;11.20;4.50;;;;;;;14.96;64.99;101114.71;107307;1244;72786;-63
2023/05/22 05:45:47;;;;;;;6.50;4.90;;;;;;;15.04;64.46;101107.92;107299;1244;61762;-63
2023/05/22 05:48:16;;;;;;;7.10;3.80;;;;;;;15.15;64.17;101110.49;107343;1245;58963;-65
2023/05/22 05:50:48;;;;;;;7.20;4.40;;;;;;;15.23;63.81;101108.06;107160;1248;73140;-63
2023/05/22 05:53:17;;;;;;;10.00;4.70;;;;;;;15.24;63.96;101107.09;107202;1248;61363;-65
2023/05/22 05:55:54;;;;;;;9.60;4.70;;;;;;;15.38;64.13;101102.55;107266;1252;70112;-64
2023/05/22 05:58:23;;;;;;;6.60;3.90;;;;;;;15.51;63.23;101103.48;107322;1252;64692;-63
2023/05/22 06:01:49;;;;;;;5.80;3.90;;;;;;;15.66;61.88;101102.79;106914;1257;61538;-64
2023/05/22 06:04:22;;;;;;;11.90;4.20;;;;;;;15.70;61.63;101104.86;107449;1251;61617;-65
2023/05/22 06:06:52;;;;;;;10.20;5.30;;;;;;;15.82;60.88;101102.22;107096;1245;72987;-64
2023/05/22 06:09:28;;;;;;;7.60;4.10;;;;;;;15.86;59.79;101105.73;107211;1245;72798;-64
2023/05/22 06:12:16;;;;;;;13.10;4.20;;;;;;;15.86;60.53;101106.64;107224;1252;70042;-64
2023/05/22 06:14:46;;;;;;;8.40;4.30;;;;;;;15.97;61.22;101111.29;107389;1246;74603;-65
2023/05/22 06:17:15;;;;;;;11.80;4.00;;;;;;;16.10;61.03;101107.12;107360;1247;59079;-64
2023/05/22 06:19:45;;;;;;;10.30;4.30;;;;;;;16.22;60.37;101107.82;107316;1244;58760;-64
2023/05/22 06:22:14;;;;;;;9.00;4.20;;;;;;;16.30;59.57;101104.08;107156;1245;71713;-64
2023/05/22 06:24:44;;;;;;;7.00;4.00;;;;;;;16.40;59.13;101104.26;107315;1244;62166;-63
2023/05/22 06:27:16;;;;;;;7.30;4.00;;;;;;;16.55;58.70;101105.14;107174;1246;69646;-65
2023/05/22 06:29:45;;;;;;;5.80;3.90;;;;;;;16.63;58.12;101101.77;107123;1245;74327;-62
2023/05/22 06:32:15;;;;;;;7.70;4.00;;;;;;;16.71;58.07;101100.89;107177;1246;61580;-65
2023/05/22 06:34:47;;;;;;;7.00;4.20;;;;;;;16.84;57.62;101100.52;107171;1244;58982;-62
2023/05/22 06:37:16;;;;;;;8.10;4.30;;;;;;;16.93;56.64;101101.31;106862;1252;451371;-63
2023/05/22 06:39:45;;;;;;;8.10;4.00;;;;;;;16.97;56.65;101105.71;107258;1244;72082;-64
2023/05/22 06:42:27;;;;;;;5.10;4.00;;;;;;;17.12;56.61;101103.09;107240;1252;60730;-66
2023/05/22 06:45:16;;;;;;;6.20;3.80;;;;;;;17.21;56.31;101095.64;107288;1248;73579;-65
2023/05/22 06:47:53;;;;;;;8.40;4.00;;;;;;;17.28;55.68;101095.27;107224;1244;61020;-65
2023/05/22 06:50:22;;;;;;;7.80;4.60;;;;;;;17.33;55.74;101094.70;107202;1246;61506;-64
2023/05/22 06:52:52;;;;;;;7.60;4.30;;;;;;;17.39;55.17;101091.70;107142;1244;73100;-63
2023/05/22 06:55:22;;;;;;;10.20;4.80;;;;;;;17.48;54.92;101100.36;107176;1245;72212;-64
2023/05/22 06:58:00;;;;;;;8.60;4.40;;;;;;;17.57;54.71;101095.98;107213;1246;59360;-65
2023/05/22 07:00:31;;;;;;;7.10;4.10;;;;;;;17.66;53.92;101098.75;107297;1244;62703;-65
2023/05/22 07:03:06;;;;;;;7.30;4.20;;;;;;;17.67;53.38;101093.90;107253;1243;60877;-64
2023/05/22 07:06:23;;;;;;;8.10;4.30;;;;;;;17.69;53.78;101094.65;107084;1255;61276;-65
2023/05/22 07:08:53;;;;;;;7.90;4.20;;;;;;;17.74;53.65;101092.59;107151;1244;63395;-64
2023/05/22 07:11:22;;;;;;;10.00;4.30;;;;;;;17.81;53.84;101085.96;107300;1244;61576;-63
2023/05/22 07:13:51;;;;;;;9.10;4.50;;;;;;;17.89;54.17;101086.02;107194;1254;59436;-63
2023/05/22 07:16:22;;;;;;;8.50;4.30;;;;;;;18.04;54.48;101085.30;107208;1245;72240;-64
2023/05/22 07:18:51;;;;;;;6.40;4.00;;;;;;;18.22;53.63;101089.06;107164;1248;60299;-64
2023/05/22 07:21:22;;;;;;;6.60;3.90;;;;;;;18.26;53.09;101088.04;107071;1244;60842;-65
2023/05/22 07:23:52;;;;;;;8.00;4.10;;;;;;;18.26;52.99;101088.36;107133;1251;73379;-64
2023/05/22 07:26:21;;;;;;;8.80;4.60;;;;;;;18.40;52.50;101090.05;107099;1245;72963;-64
2023/05/22 07:28:57;;;;;;;9.50;4.30;;;;;;;18.47;52.23;101087.67;107060;1255;71104;-63
2023/05/22 07:31:27;;;;;;;10.20;4.30;;;;;;;18.48;51.88;101081.61;107100;1245;63073;-63
2023/05/22 07:33:57;;;;;;;8.10;3.90;;;;;;;18.58;52.33;101081.85;107038;1244;58995;-64
2023/05/22 07:36:26;;;;;;;8.90;4.10;;;;;;;18.70;52.10;101083.65;107064;1245;60417;-65
2023/05/22 07:38:55;;;;;;;11.10;4.40;;;;;;;18.78;51.90;101080.77;107068;1244;73849;-64
2023/05/22 07:41:26;;;;;;;7.00;4.10;;;;;;;18.80;51.91;101080.88;107197;1244;62003;-65
2023/05/22 07:43:55;;;;;;;6.30;3.80;;;;;;;18.99;51.60;101082.13;107205;1241;70435;-65
2023/05/22 07:46:27;;;;;;;9.80;4.00;;;;;;;19.11;51.13;101080.08;107260;1245;64451;-63
2023/05/22 07:49:00;;;;;;;8.90;3.80;;;;;;;19.19;50.70;101077.73;107101;1248;59133;-62
2023/05/22 07:51:30;;;;;;;7.90;3.90;;;;;;;19.14;50.51;101075.63;107315;1244;59362;-63
2023/05/22 07:53:59;;;;;;;7.80;3.30;;;;;;;19.30;49.88;101072.55;107193;1245;72793;-64
2023/05/22 07:56:29;;;;;;;6.90;3.70;;;;;;;19.35;49.84;101072.61;107340;1244;60713;-64
2023/05/22 07:58:59;;;;;;;7.60;4.80;;;;;;;19.34;49.67;101073.80;107232;1244;59981;-65
2023/05/22 08:01:29;;;;;;;7.30;3.80;;;;;;;19.40;50.05;101075.41;107360;1244;73806;-65
2023/05/22 08:03:58;;;;;;;6.50;3.90;;;;;;;19.40;49.77;101071.87;107168;1248;61725;-64
2023/05/22 08:06:28;;;;;;;8.60;3.80;;;;;;;19.42;50.09;101071.91;107253;1244;59102;-65
2023/05/22 08:08:58;;;;;;;7.80;3.90;;;;;;;19.42;49.91;101068.83;107196;1248;73490;-64
2023/05/22 08:11:28;;;;;;;6.60;3.50;;;;;;;19.59;48.90;101067.48;107253;1251;72457;-69
2023/05/22 08:13:57;;;;;;;7.00;3.40;;;;;;;19.69;49.30;101064.24;107285;1245;59293;-66
2023/05/22 08:16:26;;;;;;;6.00;3.50;;;;;;;19.90;48.68;101062.44;107315;1256;63795;-66
2023/05/22 08:18:55;;;;;;;10.70;5.90;;;;;;;19.95;48.00;101059.07;107279;1245;59273;-66
2023/05/22 08:21:27;;;;;;;6.60;3.70;;;;;;;20.04;47.27;101057.23;107249;1245;59451;-66
2023/05/22 08:23:56;;;;;;;6.70;3.60;;;;;;;20.15;47.61;101057.76;107406;1246;62425;-67
2023/05/22 08:26:26;;;;;;;7.10;3.10;;;;;;;20.24;47.66;101056.67;107310;1243;71679;-74
2023/05/22 08:28:56;;;;;;;6.90;3.80;;;;;;;20.21;47.63;101058.34;107298;1256;60438;-65
2023/05/22 08:31:28;;;;;;;7.00;3.70;;;;;;;20.24;47.30;101056.61;107202;1256;62794;-65
2023/05/22 08:34:01;;;;;;;8.40;4.10;;;;;;;20.25;47.20;101058.30;107274;1244;59006;-65
2023/05/22 08:36:32;;;;;;;7.60;3.40;;;;;;;20.32;47.12;101055.02;107325;1244;59015;-65
2023/05/22 08:39:02;;;;;;;9.10;3.30;;;;;;;20.46;47.03;101038.59;107315;1244;72902;-65
2023/05/22 08:41:31;;;;;;;8.50;3.80;;;;;;;20.64;46.97;101046.80;107281;1256;61506;-65
2023/05/22 08:44:00;;;;;;;8.10;3.60;;;;;;;20.57;46.67;101039.64;107193;1244;60187;-66
2023/05/22 08:46:29;;;;;;;7.00;3.20;;;;;;;20.71;46.82;101037.52;107157;1256;62886;-64
2023/05/22 08:49:00;;;;;;;4.80;3.20;;;;;;;20.97;46.90;101036.84;107085;1254;61709;-66
2023/05/22 08:51:33;;;;;;;14.10;3.80;;;;;;;21.15;46.40;101033.73;107077;1247;60658;-66
2023/05/22 08:54:06;;;;;;;6.20;3.60;;;;;;;21.18;46.27;101034.43;107086;1244;73521;-65
2023/05/22 08:56:36;;;;;;;5.70;3.10;;;;;;;21.24;45.77;101035.89;107242;1245;60590;-67
2023/05/22 08:59:18;;;;;;;7.20;4.00;;;;;;;21.10;45.21;101029.45;107147;1255;71539;-64
2023/05/22 09:01:47;;;;;;;11.30;3.60;;;;;;;21.26;45.37;101020.96;107214;1252;64818;-64
2023/05/22 09:04:17;;;;;;;6.30;3.40;;;;;;;21.38;44.63;101017.55;107311;1244;60883;-66
2023/05/22 09:06:46;;;;;;;5.00;3.40;;;;;;;21.56;44.29;101014.73;107251;1244;58989;-64
2023/05/22 09:09:15;;;;;;;7.50;3.20;;;;;;;21.65;43.22;101015.83;107280;1243;74111;-66
2023/05/22 09:11:45;;;;;;;9.70;3.70;;;;;;;21.63;42.96;101013.79;107304;1244;73187;-66
2023/05/22 09:14:15;;;;;;;8.40;3.20;;;;;;;21.80;42.38;100995.89;107156;1244;71216;-69
2023/05/22 09:16:51;;;;;;;9.80;3.50;;;;;;;21.92;42.46;100997.96;107534;1255;73111;-68
2023/05/22 09:19:20;;;;;;;7.20;3.60;;;;;;;22.13;41.62;101000.23;107273;1244;59131;-65
2023/05/22 09:21:50;;;;;;;5.40;3.20;;;;;;;22.29;41.37;101002.21;107279;1244;60847;-63
2023/05/22 09:24:19;;;;;;;7.60;2.60;;;;;;;22.33;41.18;101002.52;107288;1244;72653;-65
2023/05/22 09:26:51;;;;;;;10.60;5.30;;;;;;;22.40;41.32;100999.64;107344;1251;62285;-66
2023/05/22 09:29:21;;;;;;;7.70;3.20;;;;;;;22.56;41.11;100992.09;107233;1250;59993;-65
2023/05/22 09:31:50;;;;;;;5.00;3.00;;;;;;;22.59;40.65;100992.60;107442;1251;73838;-65
2023/05/22 09:34:19;;;;;;;10.60;3.00;;;;;;;22.56;38.91;100995.98;107467;1244;58880;-65
2023/05/22 09:36:50;;;;;;;4.20;2.90;;;;;;;22.58;38.76;100993.23;107416;1242;59061;-66
2023/05/22 09:39:19;;;;;;;7.10;3.20;;;;;;;22.75;38.97;100988.36;107431;1242;73526;-64
2023/05/22 09:41:48;;;;;;;7.50;3.50;;;;;;;22.93;39.08;100987.34;107427;1241;71978;-65
2023/05/22 09:44:17;;;;;;;6.20;3.30;;;;;;;23.01;38.20;100990.69;107210;1255;70202;-65
2023/05/22 09:46:46;;;;;;;5.80;2.80;;;;;;;22.82;37.81;100986.09;107351;1251;74017;-66
2023/05/22 09:49:15;;;;;;;6.40;3.10;;;;;;;23.11;38.42;100984.34;107438;1244;60811;-67
2023/05/22 09:51:46;;;;;;;7.40;3.00;;;;;;;23.38;38.23;100980.03;107442;1244;58992;-65
2023/05/22 09:54:18;;;;;;;7.80;3.30;;;;;;;23.55;38.38;100980.34;107365;1251;73554;-65
2023/05/22 09:56:51;;;;;;;6.50;3.10;;;;;;;23.88;38.16;100977.65;107415;1251;71763;-67
2023/05/22 09:59:25;;;;;;;9.00;2.90;;;;;;;23.68;37.36;100976.39;107391;1244;60397;-65
2023/05/22 10:01:56;;;;;;;5.80;3.00;;;;;;;23.95;37.24;100977.52;107329;1244;65081;-66
2023/05/22 10:04:26;;;;;;;7.80;3.10;;;;;;;24.09;37.05;100970.79;107250;1245;59002;-67
2023/05/22 10:06:58;;;;;;;6.30;3.00;;;;;;;23.89;37.21;100972.77;107238;1246;61162;-66
2023/05/22 10:09:33;;;;;;;9.00;2.90;;;;;;;23.78;37.68;100967.90;107134;1241;75257;-65
2023/05/22 10:12:06;;;;;;;9.80;3.60;;;;;;;24.09;37.91;100975.58;107234;1255;72968;-65
2023/05/22 10:14:35;;;;;;;7.50;3.30;;;;;;;23.97;37.72;100968.36;107092;1241;70757;-64
2023/05/22 10:17:05;;;;;;;10.70;4.30;;;;;;;24.05;37.68;100969.84;107118;1244;62486;-64
2023/05/22 10:19:36;;;;;;;5.70;3.10;;;;;;;23.86;37.64;100967.75;107146;1252;59214;-64
2023/05/22 10:22:19;;;;;;;8.40;3.20;;;;;;;23.98;37.44;100962.48;107259;1241;60319;-63
2023/05/22 10:24:49;;;;;;;10.30;3.50;;;;;;;24.35;37.22;100963.88;107091;1245;62611;-66
2023/05/22 10:27:18;;;;;;;5.90;3.10;;;;;;;24.77;36.55;100959.45;107135;1244;60923;-64
2023/05/22 10:30:17;;;;;;;6.90;3.70;;;;;;;24.99;36.11;100956.23;107161;1244;60205;-66
2023/05/22 10:33:07;;;;;;;4.90;3.00;;;;;;;25.49;35.73;100955.42;106872;1245;62782;-63
2023/05/22 10:35:54;;;;;;;5.50;2.90;;;;;;;25.40;35.54;100953.64;106955;1245;58480;-64
2023/05/22 10:38:43;;;;;;;5.60;3.50;;;;;;;25.75;34.58;100952.31;106965;1254;60929;-64
2023/05/22 10:41:13;;;;;;;9.60;4.00;;;;;;;26.06;34.45;100947.92;107080;1244;75088;-64
2023/05/22 10:43:47;;;;;;;7.00;3.00;;;;;;;26.40;33.58;100951.16;107195;1245;63671;-63
2023/05/22 10:46:17;;;;;;;6.20;3.30;;;;;;;26.58;34.13;100955.65;107141;1245;70140;-64
2023/05/22 10:48:54;;;;;;;8.30;3.40;;;;;;;26.55;34.33;100952.23;107300;1251;74259;-65
2023/05/22 10:51:24;;;;;;;7.90;2.90;;;;;;;26.14;35.11;100950.60;107312;1244;62010;-64
2023/05/22 10:53:59;;;;;;;7.40;3.40;;;;;;;25.74;35.52;100947.20;107102;1246;60824;-68
2023/05/22 10:56:34;;;;;;;7.40;3.10;;;;;;;25.60;35.28;100945.74;107338;1251;74007;-68
2023/05/22 10:59:06;;;;;;;7.20;2.90;;;;;;;26.23;33.96;100934.08;106939;1255;72619;-69
2023/05/22 11:01:36;;;;;;;3.40;2.70;;;;;;;25.84;33.99;100929.97;107106;1255;61984;-68
2023/05/22 11:04:14;;;;;;;9.80;2.90;;;;;;;25.43;34.44;100925.83;107111;1251;73899;-67
2023/05/22 11:07:01;;;;;;;11.00;3.40;;;;;;;25.37;35.83;100915.20;107154;1244;60502;-66
2023/05/22 11:09:33;;;;;;;3.90;2.90;;;;;;;25.92;34.95;100924.83;107227;1244;58804;-64
2023/05/22 11:12:29;;;;;;;4.50;3.10;;;;;;;26.62;34.14;100927.13;107050;1254;62146;-62
2023/05/22 11:15:10;;;;;;;5.90;2.90;;;;;;;26.34;34.18;100919.28;107212;1242;72178;-67
2023/05/22 11:17:38;;;;;;;6.60;2.90;;;;;;;26.74;33.37;100922.88;107209;1254;70030;-65
2023/05/22 11:20:23;;;;;;;6.40;3.00;;;;;;;26.90;33.35;100923.00;107249;1243;74095;-65
2023/05/22 11:23:02;;;;;;;6.80;3.40;;;;;;;26.85;32.58;100917.45;106929;1245;58990;-64
2023/05/22 11:25:35;;;;;;;5.30;2.70;;;;;;;27.19;31.56;100915.48;107138;1252;58283;-63
2023/05/22 11:28:06;;;;;;;7.00;3.00;;;;;;;27.44;30.88;100916.77;107151;1245;64739;-66
2023/05/22 11:30:36;;;;;;;4.60;2.90;;;;;;;27.84;30.65;100908.98;107038;1245;72517;-64
2023/05/22 11:33:06;;;;;;;8.50;2.60;;;;;;;27.82;30.09;100904.53;107293;1246;59573;-63
2023/05/22 11:35:37;;;;;;;3.60;2.80;;;;;;;28.07;30.12;100898.61;107243;1254;63256;-65
2023/05/22 11:38:07;;;;;;;5.30;2.60;;;;;;;28.58;29.21;100897.33;107202;1245;60623;-64
2023/05/22 11:40:36;;;;;;;7.20;3.00;;;;;;;27.99;29.38;100901.41;107362;1241;58786;-64